Time,TemperatureF,DewpointF,PressureIn,WindDirection,WindDirectionDegrees,WindSpeedMPH,WindSpeedGustMPH,Humidity,HourlyPrecipIn,Conditions,Clouds,dailyrainin,SolarRadiationWatts/m^2,SoftwareType,DateUTC
2013-02-27 00:00:00,59.7,54.2,29.70,SSW,209,1.2,0.0,82,0.04,RA,SKC,0.64,0.0,WeatherDisplay:10.37,2013-02-27 05:00:00,
2013-02-27 00:05:00,59.8,54.3,29.70,North,355,0.0,0.0,82,0.03,RA,SKC,0.00,0.0,WeatherDisplay:10.37,2013-02-27 05:05:00,
2013-02-27 00:10:00,59.9,54.4,29.70,North,355,1.2,1.2,82,0.03,RA,SKC,0.00,0.0,WeatherDisplay:10.37,2013-02-27 05:10:00,
2013-02-27 00:15:00,59.9,54.4,29.71,North,351,1.0,1.0,82,0.03,OVC,SKC,0.00,0.0,WeatherDisplay:10.37,2013-02-27 05:15:00,
2013-02-27 00:20:00,59.9,54.4,29.71,North,360,1.2,1.2,82,0.03,RA,SKC,0.01,0.0,WeatherDisplay:10.37,2013-02-27 05:20:00,
2013-02-27 00:25:00,59.9,54.4,29.72,NNW,338,0.0,0.0,82,0.03,RA,SKC,0.01,0.0,WeatherDisplay:10.37,2013-02-27 05:25:00,
2013-02-27 00:30:00,59.9,54.4,29.71,NNW,343,1.2,1.2,82,0.03,OVC,SKC,0.01,0.0,WeatherDisplay:10.37,2013-02-27 05:30:00,
2013-02-27 00:35:00,59.9,54.4,29.71,NNW,343,0.0,0.0,82,0.03,OVC,SKC,0.01,0.0,WeatherDisplay:10.37,2013-02-27 05:35:00,
2013-02-27 00:40:00,59.9,54.4,29.72,NNW,343,0.0,0.0,82,0.03,RA,SKC,0.02,0.0,WeatherDisplay:10.37,2013-02-27 05:40:00,
2013-02-27 00:45:00,59.8,54.3,29.72,NNW,343,0.0,0.0,82,0.03,RA,SKC,0.02,0.0,WeatherDisplay:10.37,2013-02-27 05:45:00,
2013-02-27 00:50:00,59.8,54.3,29.72,NNW,343,0.0,0.0,82,0.03,OVC,SKC,0.02,0.0,WeatherDisplay:10.37,2013-02-27 05:50:00,
2013-02-27 00:55:00,59.7,54.2,29.72,NNW,343,1.0,1.0,82,0.03,OVC,SKC,0.02,0.0,WeatherDisplay:10.37,2013-02-27 05:55:00,
2013-02-27 01:00:00,59.6,54.4,29.72,NW,313,0.0,0.0,83,0.03,RA,SKC,0.03,0.0,WeatherDisplay:10.37,2013-02-27 06:00:00,
2013-02-27 01:05:00,59.5,54.3,29.72,NW,313,0.0,0.0,83,0.03,RA,SKC,0.03,0.0,WeatherDisplay:10.37,2013-02-27 06:05:00,
2013-02-27 01:10:00,59.4,54.2,29.72,WNW,294,1.2,0.0,83,0.03,OVC,SKC,0.03,0.0,WeatherDisplay:10.37,2013-02-27 06:10:00,
2013-02-27 01:15:00,59.3,54.1,29.73,WNW,294,0.0,0.0,83,0.03,OVC,SKC,0.03,0.0,WeatherDisplay:10.37,2013-02-27 06:15:00,
2013-02-27 01:20:00,59.3,53.8,29.73,NW,308,3.5,3.5,82,0.03,RA,SKC,0.04,0.0,WeatherDisplay:10.37,2013-02-27 06:20:00,
2013-02-27 01:25:00,59.2,53.7,29.74,West,275,11.5,11.5,82,0.03,RA,SKC,0.04,0.0,WeatherDisplay:10.37,2013-02-27 06:25:00,
2013-02-27 01:30:00,59.2,54.0,29.75,WSW,254,5.0,5.0,83,0.03,OVC,SKC,0.04,0.0,WeatherDisplay:10.37,2013-02-27 06:30:00,
2013-02-27 01:35:00,59.0,54.2,29.75,West,278,3.5,3.5,84,0.03,OVC,SKC,0.04,0.0,WeatherDisplay:10.37,2013-02-27 06:35:00,
2013-02-27 01:40:00,58.5,54.0,29.75,West,281,15.0,15.0,85,0.03,RA,SKC,0.05,0.0,WeatherDisplay:10.37,2013-02-27 06:40:00,
2013-02-27 01:45:00,57.7,53.5,29.76,NW,308,9.2,9.2,86,0.03,RA,SKC,0.05,0.0,WeatherDisplay:10.37,2013-02-27 06:45:00,
2013-02-27 01:50:00,57.2,53.4,29.76,West,261,6.9,6.9,87,0.03,OVC,SKC,0.05,0.0,WeatherDisplay:10.37,2013-02-27 06:50:00,
2013-02-27 01:55:00,56.6,52.8,29.76,WNW,283,8.1,8.1,87,0.03,OVC,SKC,0.05,0.0,WeatherDisplay:10.37,2013-02-27 06:55:00,
2013-02-27 02:00:00,56.2,52.4,29.76,West,271,10.4,10.4,87,0.02,OVC,SKC,0.05,0.0,WeatherDisplay:10.37,2013-02-27 07:00:00,
2013-02-27 02:05:00,55.9,52.4,29.77,WNW,292,4.6,4.6,88,0.03,RA,SKC,0.06,0.0,WeatherDisplay:10.37,2013-02-27 07:05:00,
2013-02-27 02:10:00,55.6,52.1,29.76,West,270,6.9,6.9,88,0.03,RA,SKC,0.06,0.0,WeatherDisplay:10.37,2013-02-27 07:10:00,
2013-02-27 02:15:00,55.5,52.0,29.76,WSW,254,5.8,5.8,88,0.03,OVC,SKC,0.06,0.0,WeatherDisplay:10.37,2013-02-27 07:15:00,
2013-02-27 02:20:00,55.3,51.8,29.77,West,261,8.0,8.0,88,0.02,OVC,SKC,0.06,0.0,WeatherDisplay:10.37,2013-02-27 07:20:00,
2013-02-27 02:25:00,55.2,51.7,29.77,West,275,4.6,4.6,88,0.03,RA,SKC,0.07,0.0,WeatherDisplay:10.37,2013-02-27 07:25:00,
2013-02-27 02:30:00,55.1,51.6,29.76,NNW,333,3.5,3.5,88,0.03,RA,SKC,0.07,0.0,WeatherDisplay:10.37,2013-02-27 07:30:00,
2013-02-27 02:35:00,55.0,51.5,29.77,West,277,9.2,9.2,88,0.03,OVC,SKC,0.07,0.0,WeatherDisplay:10.37,2013-02-27 07:35:00,
2013-02-27 02:40:00,54.9,51.4,29.78,West,269,5.8,5.8,88,0.02,OVC,SKC,0.07,0.0,WeatherDisplay:10.37,2013-02-27 07:40:00,
2013-02-27 02:45:00,54.7,51.2,29.77,WNW,285,4.6,4.6,88,0.02,OVC,SKC,0.07,0.0,WeatherDisplay:10.37,2013-02-27 07:45:00,
2013-02-27 02:50:00,54.6,51.1,29.78,WSW,240,6.9,6.9,88,0.03,RA,SKC,0.08,0.0,WeatherDisplay:10.37,2013-02-27 07:50:00,
2013-02-27 02:55:00,54.3,50.8,29.78,NW,304,8.1,8.1,88,0.03,RA,SKC,0.08,0.0,WeatherDisplay:10.37,2013-02-27 07:55:00,
2013-02-27 03:00:00,54.0,50.2,29.78,West,267,4.6,4.6,87,0.03,OVC,SKC,0.08,0.0,WeatherDisplay:10.37,2013-02-27 08:00:00,
2013-02-27 03:05:00,53.7,49.9,29.78,West,263,5.8,5.8,87,0.02,BKN,SKC,0.08,0.0,WeatherDisplay:10.37,2013-02-27 08:05:00,
2013-02-27 03:10:00,53.5,49.4,29.78,WSW,257,8.1,8.1,86,0.02,BKN,SKC,0.08,0.0,WeatherDisplay:10.37,2013-02-27 08:10:00,
2013-02-27 03:15:00,53.2,48.8,29.78,WNW,284,2.3,2.3,85,0.03,RA,SKC,0.09,0.0,WeatherDisplay:10.37,2013-02-27 08:15:00,
2013-02-27 03:20:00,52.8,48.1,29.79,West,264,5.8,5.8,84,0.03,RA,SKC,0.09,0.0,WeatherDisplay:10.37,2013-02-27 08:20:00,
2013-02-27 03:25:00,52.6,47.6,29.79,WNW,287,8.1,8.1,83,0.02,BKN,SKC,0.09,0.0,WeatherDisplay:10.37,2013-02-27 08:25:00,
2013-02-27 03:30:00,52.4,47.4,29.79,West,261,5.8,5.8,83,0.02,BKN,SKC,0.09,0.0,WeatherDisplay:10.37,2013-02-27 08:30:00,
2013-02-27 03:35:00,52.3,47.3,29.79,West,281,4.6,4.6,83,0.03,RA,SKC,0.10,0.0,WeatherDisplay:10.37,2013-02-27 08:35:00,
2013-02-27 03:40:00,52.1,47.4,29.80,West,259,2.3,2.3,84,0.03,RA,SKC,0.10,0.0,WeatherDisplay:10.37,2013-02-27 08:40:00,
2013-02-27 03:45:00,52.0,47.3,29.80,WNW,288,2.3,2.3,84,0.03,BKN,SKC,0.10,0.0,WeatherDisplay:10.37,2013-02-27 08:45:00,
2013-02-27 03:50:00,51.9,47.2,29.80,West,278,6.9,6.9,84,0.02,BKN,SKC,0.10,0.0,WeatherDisplay:10.37,2013-02-27 08:50:00,
2013-02-27 03:55:00,51.7,47.0,29.80,West,264,5.8,5.8,84,0.02,BKN,SKC,0.10,0.0,WeatherDisplay:10.37,2013-02-27 08:55:00,
2013-02-27 04:00:00,51.5,46.5,29.80,West,261,4.6,4.6,83,0.02,BKN,SKC,0.10,0.0,WeatherDisplay:10.37,2013-02-27 09:00:00,
2013-02-27 04:05:00,51.4,46.4,29.80,West,280,6.9,6.9,83,0.03,RA,SKC,0.11,0.0,WeatherDisplay:10.37,2013-02-27 09:05:00,
2013-02-27 04:11:00,51.3,46.3,29.81,West,277,3.5,3.5,83,0.03,RA,SKC,0.11,0.0,WeatherDisplay:10.37,2013-02-27 09:11:00,
2013-02-27 04:16:00,51.2,46.2,29.81,West,267,6.9,6.9,83,0.02,BKN,SKC,0.11,0.0,WeatherDisplay:10.37,2013-02-27 09:16:00,
2013-02-27 04:21:00,51.0,45.7,29.81,West,281,9.0,9.0,82,0.02,BKN,SKC,0.11,0.0,WeatherDisplay:10.37,2013-02-27 09:21:00,
2013-02-27 04:26:00,50.9,45.3,29.81,WSW,255,8.1,8.1,81,0.02,BKN,SKC,0.11,0.0,WeatherDisplay:10.37,2013-02-27 09:26:00,
2013-02-27 04:31:00,50.8,44.9,29.82,WNW,298,10.4,10.4,80,0.03,RA,SKC,0.12,0.0,WeatherDisplay:10.37,2013-02-27 09:31:00,
2013-02-27 04:36:00,50.6,44.7,29.81,West,274,8.1,8.1,80,0.02,RA,SKC,0.12,0.0,WeatherDisplay:10.37,2013-02-27 09:36:00,
2013-02-27 04:41:00,50.6,44.3,29.82,West,273,4.6,4.6,79,0.02,BKN,SKC,0.12,0.0,WeatherDisplay:10.37,2013-02-27 09:41:00,
2013-02-27 04:46:00,50.5,44.2,29.82,NW,309,5.8,5.8,79,0.02,BKN,SKC,0.12,0.0,WeatherDisplay:10.37,2013-02-27 09:46:00,
2013-02-27 04:51:00,50.3,44.0,29.82,West,267,5.8,5.8,79,0.02,BKN,SKC,0.12,0.0,WeatherDisplay:10.37,2013-02-27 09:51:00,
2013-02-27 04:56:00,50.3,44.4,29.82,WNW,288,4.6,4.6,80,0.03,RA,SKC,0.13,0.0,WeatherDisplay:10.37,2013-02-27 09:56:00,
2013-02-27 05:01:00,50.1,44.2,29.83,WNW,286,4.6,4.6,80,0.03,RA,SKC,0.13,0.0,WeatherDisplay:10.37,2013-02-27 10:01:00,
2013-02-27 05:06:00,50.0,44.1,29.82,WNW,288,6.9,6.9,80,0.02,BKN,SKC,0.13,0.0,WeatherDisplay:10.37,2013-02-27 10:06:00,
2013-02-27 05:11:00,49.9,44.0,29.83,West,279,4.6,4.6,80,0.02,BKN,SKC,0.13,0.0,WeatherDisplay:10.37,2013-02-27 10:11:00,
2013-02-27 05:16:00,49.9,44.3,29.83,WSW,240,6.9,6.9,81,0.02,BKN,SKC,0.13,0.0,WeatherDisplay:10.37,2013-02-27 10:16:00,
2013-02-27 05:21:00,49.8,44.2,29.83,WNW,284,3.5,3.5,81,0.02,BKN,SKC,0.13,0.0,WeatherDisplay:10.37,2013-02-27 10:21:00,
2013-02-27 05:26:00,49.7,44.1,29.83,West,269,5.0,5.0,81,0.03,RA,SKC,0.14,0.0,WeatherDisplay:10.37,2013-02-27 10:26:00,
2013-02-27 05:31:00,49.6,44.0,29.83,WNW,288,4.6,4.6,81,0.02,RA,SKC,0.14,0.0,WeatherDisplay:10.37,2013-02-27 10:31:00,
2013-02-27 05:36:00,49.5,44.2,29.83,WSW,246,2.3,2.3,82,0.02,BKN,SKC,0.14,0.0,WeatherDisplay:10.37,2013-02-27 10:36:00,
2013-02-27 05:41:00,49.5,44.2,29.83,West,281,2.3,2.3,82,0.02,BKN,SKC,0.14,0.0,WeatherDisplay:10.37,2013-02-27 10:41:00,
2013-02-27 05:46:00,49.4,43.8,29.83,SW,223,6.9,6.9,81,0.02,BKN,SKC,0.14,0.0,WeatherDisplay:10.37,2013-02-27 10:46:00,
2013-02-27 05:51:00,49.3,43.4,29.83,West,280,4.6,4.6,80,0.02,BKN,SKC,0.14,0.0,WeatherDisplay:10.37,2013-02-27 10:51:00,
2013-02-27 05:56:00,49.2,43.3,29.83,West,268,2.3,2.3,80,0.01,BKN,SKC,0.14,0.0,WeatherDisplay:10.37,2013-02-27 10:56:00,
2013-02-27 06:01:00,49.2,43.3,29.84,West,275,2.3,2.3,80,0.01,BKN,SKC,0.14,0.0,WeatherDisplay:10.37,2013-02-27 11:01:00,
2013-02-27 06:06:00,49.1,43.5,29.84,WNW,287,3.0,3.0,81,0.01,BKN,SKC,0.14,0.0,WeatherDisplay:10.37,2013-02-27 11:06:00,
2013-02-27 06:11:00,49.0,43.4,29.84,West,263,3.5,3.5,81,0.01,BKN,SKC,0.14,0.0,WeatherDisplay:10.37,2013-02-27 11:11:00,
2013-02-27 06:17:00,48.9,43.0,29.84,SW,231,5.8,5.8,80,0.01,BKN,SKC,0.14,0.0,WeatherDisplay:10.37,2013-02-27 11:17:00,
2013-02-27 06:22:00,48.8,42.9,29.84,West,275,5.8,5.8,80,0.02,RA,SKC,0.15,0.0,WeatherDisplay:10.37,2013-02-27 11:22:00,
2013-02-27 06:27:00,48.8,42.2,29.84,West,273,4.6,4.6,78,0.01,RA,SKC,0.15,0.0,WeatherDisplay:10.37,2013-02-27 11:27:00,
2013-02-27 06:32:00,48.8,42.2,29.84,WNW,288,3.5,3.5,78,0.01,BKN,SKC,0.15,0.0,WeatherDisplay:10.37,2013-02-27 11:32:00,
2013-02-27 06:37:00,48.8,42.2,29.85,West,271,3.5,3.5,78,0.01,BKN,SKC,0.15,0.0,WeatherDisplay:10.37,2013-02-27 11:37:00,
2013-02-27 06:42:00,48.7,42.1,29.85,WSW,254,3.5,3.5,78,0.01,BKN,SKC,0.15,0.0,WeatherDisplay:10.37,2013-02-27 11:42:00,
2013-02-27 06:47:00,48.6,42.0,29.85,West,271,2.3,2.3,78,0.01,BKN,SKC,0.15,0.0,WeatherDisplay:10.37,2013-02-27 11:47:00,
2013-02-27 06:52:00,48.5,42.3,29.85,WSW,242,3.5,3.5,79,0.01,BKN,SKC,0.15,0.0,WeatherDisplay:10.37,2013-02-27 11:52:00,
2013-02-27 06:57:00,48.4,41.9,29.85,West,261,4.6,4.6,78,0.02,RA,SKC,0.16,5.0,WeatherDisplay:10.37,2013-02-27 11:57:00,
2013-02-27 07:02:00,48.3,41.4,29.86,West,274,4.6,4.6,77,0.02,RA,SKC,0.16,7.0,WeatherDisplay:10.37,2013-02-27 12:02:00,
2013-02-27 07:07:00,48.3,41.4,29.85,WNW,298,4.6,4.6,77,0.02,OVC,SKC,0.16,14.0,WeatherDisplay:10.37,2013-02-27 12:07:00,
2013-02-27 07:12:00,48.3,41.1,29.85,West,264,6.9,6.9,76,0.02,OVC,SKC,0.16,21.0,WeatherDisplay:10.37,2013-02-27 12:12:00,
2013-02-27 07:17:00,48.3,40.7,29.85,WNW,288,11.5,11.5,75,0.02,OVC,SKC,0.16,30.0,WeatherDisplay:10.37,2013-02-27 12:17:00,
2013-02-27 07:22:00,48.4,40.8,29.86,West,271,10.4,10.4,75,0.02,RA,SKC,0.17,39.0,WeatherDisplay:10.37,2013-02-27 12:22:00,
2013-02-27 07:27:00,48.4,40.5,29.86,South,171,5.8,5.8,74,0.02,RA,SKC,0.17,40.0,WeatherDisplay:10.37,2013-02-27 12:27:00,
2013-02-27 07:32:00,48.5,40.6,29.87,West,263,8.1,8.1,74,0.02,OVC,SKC,0.17,46.0,WeatherDisplay:10.37,2013-02-27 12:32:00,
2013-02-27 07:37:00,48.5,40.6,29.86,WNW,285,4.6,4.6,74,0.02,OVC,SKC,0.17,53.0,WeatherDisplay:10.37,2013-02-27 12:37:00,
2013-02-27 07:42:00,48.5,40.6,29.87,West,263,10.4,10.4,74,0.02,OVC,SKC,0.17,56.0,WeatherDisplay:10.37,2013-02-27 12:42:00,
2013-02-27 07:47:00,48.5,40.6,29.87,West,277,5.8,5.8,74,0.02,OVC,SKC,0.17,67.0,WeatherDisplay:10.37,2013-02-27 12:47:00,
2013-02-27 07:52:00,48.5,40.6,29.87,WNW,282,9.2,9.2,74,0.02,OVC,SKC,0.17,77.0,WeatherDisplay:10.37,2013-02-27 12:52:00,
2013-02-27 07:57:00,48.5,40.6,29.87,WNW,301,10.0,10.0,74,0.02,RA,SKC,0.18,86.0,WeatherDisplay:10.37,2013-02-27 12:57:00,
2013-02-27 08:03:00,48.6,40.3,29.88,West,279,9.2,9.2,73,0.02,RA,SKC,0.18,91.0,WeatherDisplay:10.37,2013-02-27 13:03:00,
2013-02-27 08:08:00,48.8,40.5,29.88,WNW,284,9.2,9.2,73,0.02,BKN,SKC,0.18,93.0,WeatherDisplay:10.37,2013-02-27 13:08:00,
2013-02-27 08:13:00,48.8,40.2,29.88,WNW,290,13.0,13.0,72,0.02,BKN,SKC,0.18,91.0,WeatherDisplay:10.37,2013-02-27 13:13:00,
2013-02-27 08:18:00,48.8,40.2,29.89,NW,321,6.9,6.9,72,0.02,BKN,SKC,0.18,98.0,WeatherDisplay:10.37,2013-02-27 13:18:00,
2013-02-27 08:23:00,48.9,39.9,29.89,SW,219,3.5,3.5,71,0.02,RA,SKC,0.19,104.0,WeatherDisplay:10.37,2013-02-27 13:23:00,
2013-02-27 08:28:00,48.9,39.9,29.89,NW,306,5.0,5.0,71,0.02,RA,SKC,0.19,127.0,WeatherDisplay:10.37,2013-02-27 13:28:00,
2013-02-27 08:33:00,49.2,40.2,29.89,West,273,6.9,6.9,71,0.02,BKN,SKC,0.19,149.0,WeatherDisplay:10.37,2013-02-27 13:33:00,
2013-02-27 08:38:00,49.5,40.1,29.89,NW,313,3.5,3.5,70,0.02,BKN,SKC,0.19,137.0,WeatherDisplay:10.37,2013-02-27 13:38:00,
2013-02-27 08:43:00,49.7,39.9,29.90,NNW,331,11.5,11.5,69,0.02,BKN,SKC,0.19,149.0,WeatherDisplay:10.37,2013-02-27 13:43:00,
2013-02-27 08:48:00,49.7,39.9,29.90,West,279,13.8,13.8,69,0.02,BKN,SKC,0.19,151.0,WeatherDisplay:10.37,2013-02-27 13:48:00,
2013-02-27 08:53:00,49.7,39.6,29.90,West,277,9.2,9.2,68,0.02,BKN,SKC,0.19,178.0,WeatherDisplay:10.37,2013-02-27 13:53:00,
2013-02-27 08:58:00,49.9,39.8,29.90,West,269,8.1,8.1,68,0.01,BKN,SKC,0.19,188.0,WeatherDisplay:10.37,2013-02-27 13:58:00,
2013-02-27 09:03:00,50.0,39.8,29.90,West,273,9.2,9.2,68,0.01,BKN,SKC,0.19,207.0,WeatherDisplay:10.37,2013-02-27 14:03:00,
2013-02-27 09:08:00,50.1,39.6,29.91,NW,311,11.5,11.5,67,0.01,BKN,SKC,0.19,190.0,WeatherDisplay:10.37,2013-02-27 14:08:00,
2013-02-27 09:13:00,50.2,39.7,29.91,SW,215,3.5,3.5,67,0.01,BKN,SKC,0.19,190.0,WeatherDisplay:10.37,2013-02-27 14:13:00,
2013-02-27 09:18:00,50.4,39.9,29.91,West,280,3.5,3.5,67,0.01,BKN,SKC,0.19,209.0,WeatherDisplay:10.37,2013-02-27 14:18:00,
2013-02-27 09:23:00,50.5,39.9,29.90,WSW,253,6.0,6.0,67,0.00,BKN,SKC,0.20,258.0,WeatherDisplay:10.37,2013-02-27 14:23:00,
2013-02-27 09:28:00,51.0,40.0,29.90,WNW,299,10.4,10.4,66,0.01,RA,SKC,0.20,230.0,WeatherDisplay:10.37,2013-02-27 14:28:00,
2013-02-27 09:33:00,51.0,39.6,29.90,WSW,253,5.8,5.8,65,0.01,RA,SKC,0.20,327.0,WeatherDisplay:10.37,2013-02-27 14:33:00,
2013-02-27 09:38:00,51.2,40.2,29.91,NW,306,6.9,6.9,66,0.01,BKN,SKC,0.20,297.0,WeatherDisplay:10.37,2013-02-27 14:38:00,
2013-02-27 09:43:00,51.2,40.2,29.91,NW,320,4.0,4.0,66,0.01,BKN,SKC,0.20,285.0,WeatherDisplay:10.37,2013-02-27 14:43:00,
2013-02-27 09:48:00,51.4,40.4,29.91,NW,317,8.0,8.0,66,0.01,BKN,SKC,0.20,424.0,WeatherDisplay:10.37,2013-02-27 14:48:00,
2013-02-27 09:53:00,51.5,40.5,29.91,West,263,3.5,3.5,66,0.01,BKN,SKC,0.20,462.0,WeatherDisplay:10.37,2013-02-27 14:53:00,
2013-02-27 09:58:00,51.6,39.8,29.90,WSW,257,11.5,11.5,64,0.01,BKN,SKC,0.20,323.0,WeatherDisplay:10.37,2013-02-27 14:58:00,
2013-02-27 10:03:00,51.5,40.1,29.90,West,271,7.0,7.0,65,0.01,BKN,SKC,0.20,283.0,WeatherDisplay:10.37,2013-02-27 15:03:00,
2013-02-27 10:08:00,51.3,40.3,29.90,WNW,299,9.2,9.2,66,0.01,BKN,SKC,0.20,353.0,WeatherDisplay:10.37,2013-02-27 15:08:00,
2013-02-27 10:13:00,51.4,40.0,29.90,West,275,6.9,6.9,65,0.01,BKN,SKC,0.20,357.0,WeatherDisplay:10.37,2013-02-27 15:13:00,
2013-02-27 10:18:00,51.6,40.6,29.90,WSW,243,3.5,3.5,66,0.01,BKN,SKC,0.20,417.0,WeatherDisplay:10.37,2013-02-27 15:18:00,
2013-02-27 10:23:00,51.9,40.9,29.90,WSW,255,3.5,3.5,66,0.01,BKN,SKC,0.20,309.0,WeatherDisplay:10.37,2013-02-27 15:23:00,
2013-02-27 10:28:00,52.1,40.7,29.89,SW,228,2.0,2.0,65,0.01,RA,SKC,0.21,346.0,WeatherDisplay:10.37,2013-02-27 15:28:00,
2013-02-27 10:33:00,52.2,40.8,29.90,SW,225,1.2,1.2,65,0.01,RA,SKC,0.21,332.0,WeatherDisplay:10.37,2013-02-27 15:33:00,
2013-02-27 10:38:00,52.4,41.4,29.90,West,269,2.3,2.3,66,0.01,BKN,SKC,0.21,404.0,WeatherDisplay:10.37,2013-02-27 15:38:00,
2013-02-27 10:43:00,52.8,41.0,29.89,WSW,242,6.9,6.9,64,0.01,BKN,SKC,0.21,362.0,WeatherDisplay:10.37,2013-02-27 15:43:00,
2013-02-27 10:48:00,52.7,41.3,29.89,SW,234,4.6,4.6,65,0.01,BKN,SKC,0.21,346.0,WeatherDisplay:10.37,2013-02-27 15:48:00,
2013-02-27 10:53:00,52.7,41.7,29.89,West,265,5.8,5.8,66,0.01,BKN,SKC,0.21,330.0,WeatherDisplay:10.37,2013-02-27 15:53:00,
2013-02-27 10:58:00,53.1,41.2,29.89,West,272,4.6,4.8,64,0.01,BKN,SKC,0.21,357.0,WeatherDisplay:10.37,2013-02-27 15:58:00,
2013-02-27 11:03:00,53.2,41.3,29.89,WSW,244,6.9,6.9,64,0.01,BKN,SKC,0.21,399.0,WeatherDisplay:10.37,2013-02-27 16:03:00,
2013-02-27 11:08:00,53.5,41.6,29.89,NW,323,1.2,1.2,64,0.01,BKN,SKC,0.21,396.0,WeatherDisplay:10.37,2013-02-27 16:08:00,
2013-02-27 11:13:00,53.7,41.8,29.89,West,259,3.5,3.5,64,0.01,BKN,SKC,0.21,466.0,WeatherDisplay:10.37,2013-02-27 16:13:00,
2013-02-27 11:18:00,54.4,42.9,29.89,NW,317,5.8,5.8,65,0.01,BKN,SKC,0.21,413.0,WeatherDisplay:10.37,2013-02-27 16:18:00,
2013-02-27 11:23:00,54.7,42.3,29.88,NW,317,5.0,5.0,63,0.01,BKN,SKC,0.22,392.0,WeatherDisplay:10.37,2013-02-27 16:23:00,
2013-02-27 11:28:00,54.6,42.7,29.89,West,263,5.8,5.8,64,0.01,RA,SKC,0.22,406.0,WeatherDisplay:10.37,2013-02-27 16:28:00,
2013-02-27 11:33:00,54.8,41.2,29.88,WNW,300,9.2,9.2,60,0.01,RA,SKC,0.22,387.0,WeatherDisplay:10.37,2013-02-27 16:33:00,
2013-02-27 11:38:00,54.5,42.2,29.88,West,281,3.5,3.5,63,0.01,BKN,SKC,0.22,434.0,WeatherDisplay:10.37,2013-02-27 16:38:00,
2013-02-27 11:43:00,54.6,41.0,29.88,WNW,283,5.8,5.8,60,0.01,BKN,SKC,0.22,415.0,WeatherDisplay:10.37,2013-02-27 16:43:00,
2013-02-27 11:48:00,55.1,41.9,29.88,WNW,284,4.6,4.6,61,0.01,BKN,SKC,0.22,422.0,WeatherDisplay:10.37,2013-02-27 16:48:00,
2013-02-27 11:53:00,54.9,40.8,29.88,WNW,292,4.6,4.7,59,0.01,BKN,SKC,0.22,376.0,WeatherDisplay:10.37,2013-02-27 16:53:00,
2013-02-27 11:58:00,54.8,41.6,29.88,West,278,6.9,6.9,61,0.01,BKN,SKC,0.22,397.0,WeatherDisplay:10.37,2013-02-27 16:58:00,
2013-02-27 12:03:00,55.3,42.5,29.88,SW,232,4.6,4.6,62,0.01,BKN,SKC,0.22,468.0,WeatherDisplay:10.37,2013-02-27 17:03:00,
2013-02-27 12:08:00,56.0,42.7,29.87,WNW,294,1.2,1.2,61,0.01,BKN,SKC,0.22,508.0,WeatherDisplay:10.37,2013-02-27 17:08:00,
2013-02-27 12:13:00,56.4,42.2,29.88,West,265,3.5,3.5,59,0.01,BKN,SKC,0.22,554.0,WeatherDisplay:10.37,2013-02-27 17:13:00,
2013-02-27 12:18:00,56.0,42.3,29.88,West,263,3.5,3.5,60,0.01,BKN,SKC,0.22,452.0,WeatherDisplay:10.37,2013-02-27 17:18:00,
2013-02-27 12:23:00,55.5,41.4,29.88,West,259,4.6,4.6,59,0.01,BKN,SKC,0.22,427.0,WeatherDisplay:10.37,2013-02-27 17:23:00,
2013-02-27 12:28:00,56.2,42.9,29.87,West,276,3.5,3.5,61,0.00,BKN,SKC,0.22,383.0,WeatherDisplay:10.37,2013-02-27 17:28:00,
2013-02-27 12:34:00,55.9,42.2,29.87,WNW,300,3.5,3.5,60,0.00,BKN,SKC,0.22,383.0,WeatherDisplay:10.37,2013-02-27 17:34:00,
2013-02-27 12:39:00,56.0,42.3,29.87,WNW,290,5.8,5.8,60,0.01,RA,SKC,0.23,381.0,WeatherDisplay:10.37,2013-02-27 17:39:00,
2013-02-27 12:44:00,55.7,42.0,29.87,WNW,298,10.4,10.4,60,0.01,RA,SKC,0.23,343.0,WeatherDisplay:10.37,2013-02-27 17:44:00,
2013-02-27 12:49:00,56.1,43.3,29.86,WNW,284,3.5,3.5,62,0.01,BKN,SKC,0.23,364.0,WeatherDisplay:10.37,2013-02-27 17:49:00,
2013-02-27 12:54:00,55.9,42.2,29.86,West,274,3.5,3.5,60,0.01,BKN,SKC,0.23,360.0,WeatherDisplay:10.37,2013-02-27 17:54:00,
2013-02-27 12:59:00,55.9,42.6,29.86,West,259,2.3,2.3,61,0.01,BKN,SKC,0.23,346.0,WeatherDisplay:10.37,2013-02-27 17:59:00,
2013-02-27 13:04:00,55.9,42.6,29.86,West,278,2.3,2.3,61,0.01,BKN,SKC,0.23,327.0,WeatherDisplay:10.37,2013-02-27 18:04:00,
2013-02-27 13:09:00,56.1,42.4,29.86,WNW,283,6.9,6.9,60,0.01,BKN,SKC,0.23,418.0,WeatherDisplay:10.37,2013-02-27 18:09:00,
2013-02-27 13:14:00,56.2,42.5,29.86,West,262,6.9,6.9,60,0.01,BKN,SKC,0.23,434.0,WeatherDisplay:10.37,2013-02-27 18:14:00,
2013-02-27 13:19:00,56.5,42.8,29.85,West,279,4.6,4.6,60,0.01,BKN,SKC,0.23,385.0,WeatherDisplay:10.37,2013-02-27 18:19:00,
2013-02-27 13:24:00,56.4,42.2,29.85,West,271,2.3,2.3,59,0.01,BKN,SKC,0.23,376.0,WeatherDisplay:10.37,2013-02-27 18:24:00,
2013-02-27 13:29:00,56.4,42.7,29.85,WNW,294,3.5,3.5,60,0.01,BKN,SKC,0.23,362.0,WeatherDisplay:10.37,2013-02-27 18:29:00,
2013-02-27 13:34:00,56.7,43.0,29.85,West,276,2.3,2.3,60,0.01,BKN,SKC,0.23,373.0,WeatherDisplay:10.37,2013-02-27 18:34:00,
2013-02-27 13:39:00,56.7,41.6,29.85,West,269,9.2,9.2,57,0.00,BKN,SKC,0.23,462.0,WeatherDisplay:10.37,2013-02-27 18:39:00,
2013-02-27 13:44:00,57.1,42.9,29.85,West,272,2.3,2.3,59,0.00,BKN,SKC,0.23,582.0,WeatherDisplay:10.37,2013-02-27 18:44:00,
2013-02-27 13:49:00,57.6,43.8,29.84,North,355,3.5,3.5,60,0.00,BKN,SKC,0.23,397.0,WeatherDisplay:10.37,2013-02-27 18:49:00,
2013-02-27 13:54:00,58.1,44.7,29.84,West,276,3.5,3.5,61,0.00,BKN,SKC,0.23,427.0,WeatherDisplay:10.37,2013-02-27 18:54:00,
2013-02-27 13:59:00,57.6,42.5,29.85,West,268,6.9,6.9,57,0.01,RA,SKC,0.24,564.0,WeatherDisplay:10.37,2013-02-27 18:59:00,
2013-02-27 14:04:00,57.7,43.5,29.84,SW,235,3.5,3.5,59,0.01,RA,SKC,0.24,568.0,WeatherDisplay:10.37,2013-02-27 19:04:00,
2013-02-27 14:09:00,58.0,42.8,29.84,WSW,252,4.6,4.6,57,0.01,BKN,SKC,0.24,515.0,WeatherDisplay:10.37,2013-02-27 19:09:00,
2013-02-27 14:14:00,57.8,42.7,29.84,WNW,292,9.2,9.2,57,0.01,BKN,SKC,0.24,526.0,WeatherDisplay:10.37,2013-02-27 19:14:00,
2013-02-27 14:19:00,58.3,43.1,29.84,West,266,3.5,3.5,57,0.01,BKN,SKC,0.24,621.0,WeatherDisplay:10.37,2013-02-27 19:19:00,
2013-02-27 14:24:00,58.8,42.7,29.84,WSW,248,3.5,3.5,55,0.01,BKN,SKC,0.24,758.0,WeatherDisplay:10.37,2013-02-27 19:24:00,
2013-02-27 14:29:00,59.0,42.8,29.83,SW,215,3.5,3.5,55,0.01,BKN,SKC,0.24,708.0,WeatherDisplay:10.37,2013-02-27 19:29:00,
2013-02-27 14:34:00,59.4,44.2,29.83,West,273,6.9,6.9,57,0.01,BKN,SKC,0.24,399.0,WeatherDisplay:10.37,2013-02-27 19:34:00,
2013-02-27 14:39:00,58.6,42.0,29.83,West,278,9.0,9.0,54,0.01,BKN,SKC,0.24,260.0,WeatherDisplay:10.37,2013-02-27 19:39:00,
2013-02-27 14:44:00,58.2,43.9,29.84,NW,317,4.0,4.0,59,0.01,BKN,SKC,0.24,278.0,WeatherDisplay:10.37,2013-02-27 19:44:00,
2013-02-27 14:49:00,58.4,43.7,29.84,WNW,290,2.3,2.3,58,0.01,BKN,SKC,0.24,272.0,WeatherDisplay:10.37,2013-02-27 19:49:00,
2013-02-27 14:54:00,58.2,43.5,29.83,NW,304,4.6,4.6,58,0.01,BKN,SKC,0.24,253.0,WeatherDisplay:10.37,2013-02-27 19:54:00,
2013-02-27 14:59:00,58.3,43.6,29.83,SW,233,3.5,3.5,58,0.00,BKN,SKC,0.24,262.0,WeatherDisplay:10.37,2013-02-27 19:59:00,
2013-02-27 15:04:00,58.3,44.0,29.83,NW,306,2.0,2.0,59,0.00,BKN,SKC,0.25,250.0,WeatherDisplay:10.37,2013-02-27 20:04:00,
2013-02-27 15:09:00,58.5,44.2,29.83,WSW,242,3.5,3.5,59,0.01,RA,SKC,0.25,246.0,WeatherDisplay:10.37,2013-02-27 20:09:00,
2013-02-27 15:14:00,58.3,44.0,29.83,NNE,15,2.3,2.3,59,0.01,RA,SKC,0.25,243.0,WeatherDisplay:10.37,2013-02-27 20:14:00,
2013-02-27 15:19:00,58.3,44.0,29.83,West,271,2.0,2.0,59,0.01,BKN,SKC,0.25,236.0,WeatherDisplay:10.37,2013-02-27 20:19:00,
2013-02-27 15:24:00,58.1,42.9,29.83,West,264,2.3,2.3,57,0.01,BKN,SKC,0.25,241.0,WeatherDisplay:10.37,2013-02-27 20:24:00,
2013-02-27 15:29:00,58.2,43.9,29.83,SSW,211,1.2,1.2,59,0.01,BKN,SKC,0.25,225.0,WeatherDisplay:10.37,2013-02-27 20:29:00,
2013-02-27 15:34:00,58.3,43.1,29.83,SW,231,4.6,4.6,57,0.01,BKN,SKC,0.25,216.0,WeatherDisplay:10.37,2013-02-27 20:34:00,
2013-02-27 15:39:00,58.0,43.3,29.82,WSW,247,6.9,6.9,58,0.01,BKN,SKC,0.25,211.0,WeatherDisplay:10.37,2013-02-27 20:39:00,
2013-02-27 15:44:00,57.9,43.2,29.82,WNW,288,3.5,3.5,58,0.01,BKN,SKC,0.25,183.0,WeatherDisplay:10.37,2013-02-27 20:44:00,
2013-02-27 15:49:00,57.6,42.5,29.82,SW,228,3.5,3.5,57,0.01,BKN,SKC,0.25,162.0,WeatherDisplay:10.37,2013-02-27 20:49:00,
2013-02-27 15:54:00,57.7,43.9,29.82,WSW,250,2.3,2.3,60,0.01,BKN,SKC,0.25,160.0,WeatherDisplay:10.37,2013-02-27 20:54:00,
2013-02-27 15:59:00,57.7,43.5,29.83,NNW,346,2.3,2.3,59,0.01,BKN,SKC,0.25,156.0,WeatherDisplay:10.37,2013-02-27 20:59:00,
2013-02-27 16:04:00,57.7,43.5,29.82,WNW,284,3.5,3.5,59,0.01,BKN,SKC,0.25,153.0,WeatherDisplay:10.37,2013-02-27 21:04:00,
2013-02-27 16:09:00,57.6,43.8,29.83,West,261,3.5,3.5,60,0.00,BKN,SKC,0.25,151.0,WeatherDisplay:10.37,2013-02-27 21:09:00,
2013-02-27 16:14:00,57.6,43.4,29.82,WSW,244,5.8,5.8,59,0.00,BKN,SKC,0.25,153.0,WeatherDisplay:10.37,2013-02-27 21:14:00,
2013-02-27 16:19:00,57.6,44.2,29.82,SW,225,0.0,0.2,61,0.00,BKN,SKC,0.25,148.0,WeatherDisplay:10.37,2013-02-27 21:19:00,
2013-02-27 16:24:00,57.7,44.3,29.82,WSW,257,1.0,1.0,61,0.00,BKN,SKC,0.25,137.0,WeatherDisplay:10.37,2013-02-27 21:24:00,
2013-02-27 16:29:00,57.6,44.2,29.82,West,260,2.3,2.3,61,0.00,BKN,SKC,0.25,114.0,WeatherDisplay:10.37,2013-02-27 21:29:00,
2013-02-27 16:34:00,57.5,44.1,29.82,NW,306,2.0,2.0,61,0.00,BKN,SKC,0.25,118.0,WeatherDisplay:10.37,2013-02-27 21:34:00,
2013-02-27 16:39:00,57.3,44.0,29.82,West,273,1.2,1.2,61,0.00,BKN,SKC,0.25,114.0,WeatherDisplay:10.37,2013-02-27 21:39:00,
2013-02-27 16:44:00,57.3,44.4,29.82,West,273,0.0,0.7,62,0.00,BKN,SKC,0.25,98.0,WeatherDisplay:10.37,2013-02-27 21:44:00,
2013-02-27 16:49:00,57.1,44.6,29.82,SW,228,1.2,0.0,63,0.00,BKN,SKC,0.25,102.0,WeatherDisplay:10.37,2013-02-27 21:49:00,
2013-02-27 16:54:00,57.1,44.2,29.82,ENE,76,5.8,5.8,62,0.00,BKN,SKC,0.25,104.0,WeatherDisplay:10.37,2013-02-27 21:54:00,
2013-02-27 16:59:00,56.9,44.4,29.82,SW,216,1.2,1.2,63,0.00,BKN,SKC,0.25,102.0,WeatherDisplay:10.37,2013-02-27 21:59:00,
2013-02-27 17:04:00,56.8,44.3,29.82,South,182,3.5,3.5,63,0.00,BKN,SKC,0.25,90.0,WeatherDisplay:10.37,2013-02-27 22:04:00,
2013-02-27 17:09:00,56.7,43.4,29.82,WNW,303,2.3,2.3,61,0.00,BKN,SKC,0.25,81.0,WeatherDisplay:10.37,2013-02-27 22:09:00,
2013-02-27 17:14:00,56.6,43.7,29.82,WNW,284,3.5,3.5,62,0.00,BKN,SKC,0.25,67.0,WeatherDisplay:10.37,2013-02-27 22:14:00,
2013-02-27 17:19:00,56.4,44.0,29.82,WSW,254,3.5,3.5,63,0.00,BKN,SKC,0.25,62.0,WeatherDisplay:10.37,2013-02-27 22:19:00,
2013-02-27 17:24:00,56.3,44.7,29.82,WNW,294,1.2,0.0,65,0.00,BKN,SKC,0.25,53.0,WeatherDisplay:10.37,2013-02-27 22:24:00,
2013-02-27 17:29:00,56.1,44.5,29.82,WSW,253,3.5,3.5,65,0.00,BKN,SKC,0.25,53.0,WeatherDisplay:10.37,2013-02-27 22:29:00,
2013-02-27 17:34:00,56.0,44.8,29.82,SE,136,1.0,1.0,66,0.00,BKN,SKC,0.25,39.0,WeatherDisplay:10.37,2013-02-27 22:34:00,
2013-02-27 17:40:00,55.8,44.2,29.83,SSE,151,1.2,0.0,65,0.00,BKN,SKC,0.25,39.0,WeatherDisplay:10.37,2013-02-27 22:40:00,
2013-02-27 17:45:00,55.7,44.1,29.83,SSE,154,0.0,1.0,65,0.00,BKN,SKC,0.25,26.0,WeatherDisplay:10.37,2013-02-27 22:45:00,
2013-02-27 17:50:00,55.5,44.3,29.83,ENE,60,0.0,0.3,66,0.00,BKN,SKC,0.25,25.0,WeatherDisplay:10.37,2013-02-27 22:50:00,
2013-02-27 17:55:00,55.3,44.5,29.83,ENE,61,1.0,0.0,67,0.00,BKN,SKC,0.25,12.0,WeatherDisplay:10.37,2013-02-27 22:55:00,
2013-02-27 18:00:00,55.0,44.6,29.83,ENE,61,0.0,0.1,68,0.00,BKN,SKC,0.25,14.0,WeatherDisplay:10.37,2013-02-27 23:00:00,
2013-02-27 18:05:00,54.9,44.9,29.83,SE,140,1.0,1.0,69,0.00,BKN,SKC,0.25,11.0,WeatherDisplay:10.37,2013-02-27 23:05:00,
2013-02-27 18:10:00,54.7,44.7,29.83,NW,304,2.3,0.0,69,0.00,BKN,SKC,0.25,5.0,WeatherDisplay:10.37,2013-02-27 23:10:00,
2013-02-27 18:15:00,54.6,44.6,29.83,NNW,330,0.0,0.0,69,0.00,BKN,SKC,0.25,5.0,WeatherDisplay:10.37,2013-02-27 23:15:00,
2013-02-27 18:20:00,54.4,44.8,29.83,NW,306,0.0,0.0,70,0.00,BKN,SKC,0.25,0.0,WeatherDisplay:10.37,2013-02-27 23:20:00,
2013-02-27 18:25:00,54.3,44.7,29.83,WNW,288,0.0,0.0,70,0.00,BKN,SKC,0.25,0.0,WeatherDisplay:10.37,2013-02-27 23:25:00,
2013-02-27 18:30:00,54.1,44.9,29.83,SSE,163,0.0,0.1,71,0.00,BKN,SKC,0.25,0.0,WeatherDisplay:10.37,2013-02-27 23:30:00,
2013-02-27 18:35:00,53.9,44.7,29.84,SSE,162,0.0,0.1,71,0.00,BKN,SKC,0.25,0.0,WeatherDisplay:10.37,2013-02-27 23:35:00,
2013-02-27 18:40:00,53.8,45.0,29.84,SSE,163,0.0,0.0,72,0.00,BKN,SKC,0.25,0.0,WeatherDisplay:10.37,2013-02-27 23:40:00,
2013-02-27 18:45:00,53.4,45.0,29.84,SSE,163,0.0,0.0,73,0.00,BKN,SKC,0.25,0.0,WeatherDisplay:10.37,2013-02-27 23:45:00,
2013-02-27 18:50:00,53.2,44.8,29.84,SSE,163,0.0,0.0,73,0.00,BKN,SKC,0.25,0.0,WeatherDisplay:10.37,2013-02-27 23:50:00,
2013-02-27 18:55:00,53.2,45.1,29.84,SSE,155,1.2,1.2,74,0.00,BKN,SKC,0.25,0.0,WeatherDisplay:10.37,2013-02-27 23:55:00,
2013-02-27 19:00:00,53.1,45.0,29.84,SSE,154,0.0,0.0,74,0.00,BKN,SKC,0.25,0.0,WeatherDisplay:10.37,2013-02-28 00:00:00,
2013-02-27 19:05:00,53.0,44.9,29.84,West,277,1.2,0.0,74,0.00,BKN,SKC,0.25,0.0,WeatherDisplay:10.37,2013-02-28 00:05:00,
2013-02-27 19:10:00,53.1,45.0,29.84,WNW,286,2.3,2.3,74,0.00,BKN,SKC,0.25,0.0,WeatherDisplay:10.37,2013-02-28 00:10:00,
2013-02-27 19:15:00,52.9,44.8,29.84,SSE,161,1.2,0.0,74,0.00,BKN,SKC,0.25,0.0,WeatherDisplay:10.37,2013-02-28 00:15:00,
2013-02-27 19:20:00,52.8,45.1,29.84,SW,234,2.0,2.0,75,0.00,BKN,SKC,0.25,0.0,WeatherDisplay:10.37,2013-02-28 00:20:00,
2013-02-27 19:25:00,52.7,45.0,29.84,SSW,203,1.2,1.2,75,0.00,BKN,SKC,0.25,0.0,WeatherDisplay:10.37,2013-02-28 00:25:00,
2013-02-27 19:30:00,52.6,44.9,29.84,WNW,301,3.5,3.5,75,0.00,BKN,SKC,0.25,0.0,WeatherDisplay:10.37,2013-02-28 00:30:00,
2013-02-27 19:35:00,52.6,44.5,29.84,WNW,291,3.5,3.5,74,0.00,BKN,SKC,0.25,0.0,WeatherDisplay:10.37,2013-02-28 00:35:00,
2013-02-27 19:40:00,52.6,44.5,29.84,SW,234,1.2,1.2,74,0.00,BKN,SKC,0.25,0.0,WeatherDisplay:10.37,2013-02-28 00:40:00,
2013-02-27 19:45:00,52.5,44.4,29.84,WSW,249,2.3,2.3,74,0.00,BKN,SKC,0.25,0.0,WeatherDisplay:10.37,2013-02-28 00:45:00,
2013-02-27 19:50:00,52.4,44.7,29.84,SW,222,2.3,2.3,75,0.00,BKN,SKC,0.25,0.0,WeatherDisplay:10.37,2013-02-28 00:50:00,
2013-02-27 19:55:00,52.3,44.3,29.84,South,177,1.2,1.2,74,0.00,BKN,SKC,0.25,0.0,WeatherDisplay:10.37,2013-02-28 00:55:00,
2013-02-27 20:00:00,52.2,44.5,29.84,West,272,2.3,2.3,75,0.00,BKN,SKC,0.25,0.0,WeatherDisplay:10.37,2013-02-28 01:00:00,
2013-02-27 20:05:00,52.0,44.3,29.84,West,271,1.2,1.2,75,0.00,BKN,SKC,0.25,0.0,WeatherDisplay:10.37,2013-02-28 01:05:00,
2013-02-27 20:10:00,51.9,44.2,29.84,West,273,0.0,0.0,75,0.00,BKN,SKC,0.25,0.0,WeatherDisplay:10.37,2013-02-28 01:10:00,
2013-02-27 20:15:00,51.7,44.0,29.84,West,271,0.0,0.0,75,0.00,BKN,SKC,0.25,0.0,WeatherDisplay:10.37,2013-02-28 01:15:00,
2013-02-27 20:20:00,51.7,44.0,29.85,West,271,3.5,3.5,75,0.00,BKN,SKC,0.25,0.0,WeatherDisplay:10.37,2013-02-28 01:20:00,
2013-02-27 20:25:00,51.6,44.3,29.84,South,184,2.3,2.3,76,0.00,BKN,SKC,0.25,0.0,WeatherDisplay:10.37,2013-02-28 01:25:00,
2013-02-27 20:30:00,51.5,43.8,29.84,South,184,1.2,1.2,75,0.00,BKN,SKC,0.25,0.0,WeatherDisplay:10.37,2013-02-28 01:30:00,
2013-02-27 20:35:00,51.5,44.2,29.84,SSW,211,3.5,3.5,76,0.00,BKN,SKC,0.25,0.0,WeatherDisplay:10.37,2013-02-28 01:35:00,
2013-02-27 20:40:00,51.4,43.7,29.85,NNW,338,3.5,3.5,75,0.00,BKN,SKC,0.25,0.0,WeatherDisplay:10.37,2013-02-28 01:40:00,
2013-02-27 20:45:00,51.4,43.7,29.85,NE,35,2.3,2.3,75,0.00,BKN,SKC,0.25,0.0,WeatherDisplay:10.37,2013-02-28 01:45:00,
2013-02-27 20:50:00,51.3,43.6,29.85,WSW,257,1.2,1.2,75,0.00,BKN,SKC,0.25,0.0,WeatherDisplay:10.37,2013-02-28 01:50:00,
2013-02-27 20:55:00,51.3,43.6,29.85,West,268,1.2,0.0,75,0.00,BKN,SKC,0.25,0.0,WeatherDisplay:10.37,2013-02-28 01:55:00,
2013-02-27 21:00:00,51.3,43.6,29.85,WSW,248,1.2,1.2,75,0.00,BKN,SKC,0.25,0.0,WeatherDisplay:10.37,2013-02-28 02:00:00,
2013-02-27 21:05:00,51.4,43.7,29.85,WSW,254,1.2,1.2,75,0.00,BKN,SKC,0.25,0.0,WeatherDisplay:10.37,2013-02-28 02:05:00,
2013-02-27 21:10:00,51.4,43.7,29.85,SW,231,2.3,0.0,75,0.00,BKN,SKC,0.25,0.0,WeatherDisplay:10.37,2013-02-28 02:10:00,
2013-02-27 21:15:00,51.4,43.7,29.84,SSE,151,1.2,1.2,75,0.00,BKN,SKC,0.25,0.0,WeatherDisplay:10.37,2013-02-28 02:15:00,
2013-02-27 21:20:00,51.3,43.6,29.84,SSW,203,0.0,0.0,75,0.00,BKN,SKC,0.25,0.0,WeatherDisplay:10.37,2013-02-28 02:20:00,
2013-02-27 21:25:00,51.2,43.5,29.85,SSE,165,1.2,0.0,75,0.00,BKN,SKC,0.25,0.0,WeatherDisplay:10.37,2013-02-28 02:25:00,
2013-02-27 21:30:00,51.2,43.5,29.84,WSW,247,2.3,2.3,75,0.00,BKN,SKC,0.25,0.0,WeatherDisplay:10.37,2013-02-28 02:30:00,
2013-02-27 21:36:00,51.2,43.5,29.85,West,269,1.2,1.2,75,0.00,BKN,SKC,0.25,0.0,WeatherDisplay:10.37,2013-02-28 02:36:00,
2013-02-27 21:41:00,51.2,43.5,29.85,West,263,4.6,4.6,75,0.00,BKN,SKC,0.25,0.0,WeatherDisplay:10.37,2013-02-28 02:41:00,
2013-02-27 21:46:00,51.2,43.5,29.85,WSW,256,3.5,3.5,75,0.00,BKN,SKC,0.25,0.0,WeatherDisplay:10.37,2013-02-28 02:46:00,
2013-02-27 21:51:00,51.2,43.5,29.85,NNW,342,2.3,2.3,75,0.00,BKN,SKC,0.25,0.0,WeatherDisplay:10.37,2013-02-28 02:51:00,
2013-02-27 21:56:00,51.2,43.5,29.85,West,268,2.3,2.3,75,0.00,BKN,SKC,0.25,0.0,WeatherDisplay:10.37,2013-02-28 02:56:00,
2013-02-27 22:01:00,51.2,43.5,29.85,NW,305,3.5,3.5,75,0.00,BKN,SKC,0.25,0.0,WeatherDisplay:10.37,2013-02-28 03:01:00,
2013-02-27 22:06:00,51.2,43.5,29.86,SSW,203,4.0,4.0,75,0.00,BKN,SKC,0.25,0.0,WeatherDisplay:10.37,2013-02-28 03:06:00,
2013-02-27 22:11:00,51.3,43.6,29.86,West,263,2.3,2.3,75,0.00,BKN,SKC,0.25,0.0,WeatherDisplay:10.37,2013-02-28 03:11:00,
2013-02-27 22:16:00,51.1,43.8,29.86,West,275,2.3,2.3,76,0.00,BKN,SKC,0.25,0.0,WeatherDisplay:10.37,2013-02-28 03:16:00,
2013-02-27 22:21:00,51.1,43.8,29.86,WNW,300,2.0,2.0,76,0.00,BKN,SKC,0.25,0.0,WeatherDisplay:10.37,2013-02-28 03:21:00,
2013-02-27 22:26:00,51.0,43.7,29.85,North,355,3.5,3.5,76,0.00,BKN,SKC,0.25,0.0,WeatherDisplay:10.37,2013-02-28 03:26:00,
2013-02-27 22:31:00,51.0,43.7,29.85,South,181,3.5,3.5,76,0.00,BKN,SKC,0.25,0.0,WeatherDisplay:10.37,2013-02-28 03:31:00,
2013-02-27 22:36:00,51.0,43.7,29.86,WNW,298,3.5,3.5,76,0.00,BKN,SKC,0.25,0.0,WeatherDisplay:10.37,2013-02-28 03:36:00,
2013-02-27 22:41:00,51.0,43.4,29.85,SSW,211,4.6,4.6,75,0.00,BKN,SKC,0.25,0.0,WeatherDisplay:10.37,2013-02-28 03:41:00,
2013-02-27 22:46:00,51.1,43.4,29.85,West,267,3.5,3.5,75,0.00,BKN,SKC,0.25,0.0,WeatherDisplay:10.37,2013-02-28 03:46:00,
2013-02-27 22:51:00,51.1,43.4,29.85,SSE,165,2.3,2.3,75,0.00,BKN,SKC,0.25,0.0,WeatherDisplay:10.37,2013-02-28 03:51:00,
2013-02-27 22:56:00,51.0,43.4,29.85,South,190,1.2,1.2,75,0.00,BKN,SKC,0.25,0.0,WeatherDisplay:10.37,2013-02-28 03:56:00,
2013-02-27 23:01:00,50.9,43.3,29.85,WSW,242,2.3,2.3,75,0.00,BKN,SKC,0.25,0.0,WeatherDisplay:10.37,2013-02-28 04:01:00,
2013-02-27 23:06:00,50.9,43.3,29.85,WNW,290,2.3,2.3,75,0.00,BKN,SKC,0.25,0.0,WeatherDisplay:10.37,2013-02-28 04:06:00,
2013-02-27 23:11:00,50.8,43.2,29.85,West,262,2.3,2.3,75,0.00,BKN,SKC,0.25,0.0,WeatherDisplay:10.37,2013-02-28 04:11:00,
2013-02-27 23:16:00,50.6,43.3,29.85,NW,322,1.2,0.0,76,0.00,BKN,SKC,0.25,0.0,WeatherDisplay:10.37,2013-02-28 04:16:00,
2013-02-27 23:21:00,50.5,43.2,29.85,West,267,1.2,1.2,76,0.00,BKN,SKC,0.25,0.0,WeatherDisplay:10.37,2013-02-28 04:21:00,
2013-02-27 23:26:00,50.4,43.1,29.85,WSW,252,0.0,0.0,76,0.00,BKN,SKC,0.25,0.0,WeatherDisplay:10.37,2013-02-28 04:26:00,
2013-02-27 23:31:00,50.3,43.0,29.85,WSW,253,1.2,1.2,76,0.00,BKN,SKC,0.25,0.0,WeatherDisplay:10.37,2013-02-28 04:31:00,
2013-02-27 23:36:00,50.3,43.0,29.85,West,263,3.5,3.5,76,0.00,BKN,SKC,0.25,0.0,WeatherDisplay:10.37,2013-02-28 04:36:00,
2013-02-27 23:41:00,50.3,43.0,29.85,NW,316,6.0,6.0,76,0.00,BKN,SKC,0.25,0.0,WeatherDisplay:10.37,2013-02-28 04:41:00,
2013-02-27 23:46:00,50.3,43.0,29.85,East,80,3.0,3.0,76,0.00,BKN,SKC,0.25,0.0,WeatherDisplay:10.37,2013-02-28 04:46:00,
2013-02-27 23:51:00,50.2,42.9,29.85,South,188,2.3,2.3,76,0.00,BKN,SKC,0.25,0.0,WeatherDisplay:10.37,2013-02-28 04:51:00,
2013-02-27 23:56:00,50.1,43.2,29.85,West,263,3.5,3.5,77,0.00,BKN,SKC,0.25,0.0,WeatherDisplay:10.37,2013-02-28 04:56:00,